Sumise Maru No.8 — JK5581 — position and weather

sailwx.info

Track history (hours):
 
Tides and Currents Weather Stations Pressure Air Temp Water Temp Dewpoint Dewpoint Depression Visibility Wind Speed Wind Dir Waves Ship Positions

Sumise Maru No.8

Last reported at 2018-Feb-20 18:43 UTC. Time now 2018-Feb-24 18:30 UTC.
Position N 41°16' E 140°18'.

Length 99 m; draft 6.3 m.

Type: Cargo ship. MMSI: 431401788.

Date/timePositionNaut miles runAvg speedWind from/ knotsBaromVisibWave heightAir tempDewpointWater temp
2018-Feb-20 18:43N 41°16' E 140°18'3 7.8
2018-Feb-20 18:21N 41°18' E 140°21'3 9.0
2018-Feb-20 18:00N 41°18' E 140°25'510.4
2018-Feb-20 17:29N 41°18' E 140°32'510.3
2018-Feb-20 17:00N 41°19' E 140°38'611.7
2018-Feb-20 16:30N 41°24' E 140°43'611.4
2018-Feb-20 16:00N 41°29' E 140°47'511.0
2018-Feb-20 15:30N 41°33' E 140°51'4 8.8
2018-Feb-20 15:00N 41°36' E 140°56'510.0
2018-Feb-20 14:30N 41°34' E 141°03'510.7
2018-Feb-20 14:00N 41°32' E 141°09'510.3
2018-Feb-20 13:30N 41°29' E 141°15'510.6
2018-Feb-20 13:00N 41°26' E 141°21'4 7.7
2018-Feb-20 12:29N 41°25' E 141°26'0 0.0
2018-Feb-20 11:34N 41°25' E 141°26'0 0.0
2018-Feb-20 10:46N 41°25' E 141°26'0 0.0
2018-Feb-20 10:16N 41°25' E 141°26'0 0.0
2018-Feb-20 09:01N 41°25' E 141°26'0 0.0
2018-Feb-20 08:55N 41°25' E 141°26'0 0.0
2018-Feb-20 08:22N 41°25' E 141°26'0 0.0
2018-Feb-20 06:58N 41°25' E 141°26'0 0.3
2018-Feb-20 06:28N 41°25' E 141°26'1 1.7
2018-Feb-20 05:56N 41°25' E 141°25'0 1.1
2018-Feb-20 05:30N 41°25' E 141°25'3 6.0
2018-Feb-20 05:00N 41°28' E 141°25'4 7.6
2018-Feb-20 04:29N 41°28' E 141°30'910.9
2018-Feb-20 03:39N 41°20' E 141°33'511.6
2018-Feb-20 03:15N 41°15' E 141°34'312.0
2018-Feb-20 02:59N 41°12' E 141°34'611.6
2018-Feb-20 02:30N 41°06' E 141°34'1712.2
2018-Feb-20 01:06N 40°49' E 141°34'312.2
2018-Feb-20 00:51N 40°46' E 141°34'38 3.2
2018-Feb-19 12:59N 41°24' E 141°35'714.0
2018-Feb-19 12:30N 41°30' E 141°35'714.0
2018-Feb-19 11:59N 41°38' E 141°34'713.1
2018-Feb-19 11:28N 41°45' E 141°34'2 0.1
2018-Feb-18 15:30N 41°47' E 141°35'611.5
2018-Feb-18 15:00N 41°41' E 141°34'610.9
2018-Feb-18 14:28N 41°35' E 141°34'510.5
2018-Feb-18 14:00N 41°30' E 141°34'510.3
2018-Feb-18 13:30N 41°25' E 141°34'1010.4
2018-Feb-18 12:34N 41°15' E 141°34'110.4
2018-Feb-18 12:30N 41°15' E 141°34'510.5
2018-Feb-18 12:00N 41°09' E 141°34'1911.3
2018-Feb-18 10:19N 40°50' E 141°33'611.6
2018-Feb-18 09:50N 40°45' E 141°34'351 8.1
2018-Feb-16 14:14N 34°59' E 140°14'412.4
2018-Feb-16 13:55N 34°57' E 140°10'512.2
2018-Feb-16 13:28N 34°54' E 140°04'1211.2
2018-Feb-16 12:22N 34°51' E 139°50'714.5
2018-Feb-16 11:51N 34°56' E 139°43'513.5
2018-Feb-16 11:30N 35°00' E 139°41'713.1
2018-Feb-16 11:00N 35°07' E 139°44'713.2
2018-Feb-16 10:30N 35°13' E 139°46'612.4
2018-Feb-16 10:00N 35°19' E 139°43'612.4
2018-Feb-16 09:30N 35°25' E 139°43'713.1
2018-Feb-16 09:00N 35°29' E 139°49'510.3
2018-Feb-16 08:30N 35°34' E 139°49'5 9.8
2018-Feb-16 08:00N 35°38' E 139°46'0 0.2
2018-Feb-16 07:30N 35°38' E 139°45'0 0.0
2018-Feb-16 01:28N 35°38' E 139°45'0 0.0
2018-Feb-16 01:00N 35°38' E 139°45'1 2.4
2018-Feb-16 00:31N 35°37' E 139°46'5 9.0
2018-Feb-16 00:00N 35°34' E 139°50'510.0
2018-Feb-15 23:31N 35°29' E 139°51'611.2
2018-Feb-15 23:00N 35°26' E 139°45'5 9.3
2018-Feb-15 22:31N 35°28' E 139°40'1 1.4
2018-Feb-15 21:59N 35°29' E 139°40'0 0.0
2018-Feb-15 21:29N 35°29' E 139°40'0 0.0
2018-Feb-15 20:59N 35°29' E 139°40'0 0.0
2018-Feb-15 20:29N 35°29' E 139°40'0 0.0
2018-Feb-15 19:59N 35°29' E 139°40'0 0.0
2018-Feb-15 19:29N 35°29' E 139°40'0 0.0
2018-Feb-15 18:59N 35°29' E 139°40'0 0.0
2018-Feb-15 18:29N 35°29' E 139°40'0 0.0
2018-Feb-15 17:59N 35°29' E 139°40'0 0.0
2018-Feb-15 17:29N 35°29' E 139°40'0 0.0
2018-Feb-15 16:56N 35°29' E 139°40'0 0.0
2018-Feb-15 16:29N 35°29' E 139°40'0 0.0
2018-Feb-15 15:59N 35°29' E 139°40'0 0.0
2018-Feb-15 15:29N 35°29' E 139°40'0 0.0
2018-Feb-15 14:59N 35°29' E 139°40'0 0.0
2018-Feb-15 14:29N 35°29' E 139°40'0 0.0
2018-Feb-15 13:59N 35°29' E 139°40'0 0.0
2018-Feb-15 13:29N 35°29' E 139°40'0 0.0
2018-Feb-15 12:59N 35°29' E 139°40'0 0.0
2018-Feb-15 12:29N 35°29' E 139°40'0 0.0
2018-Feb-15 11:59N 35°29' E 139°40'0 0.0
2018-Feb-15 11:29N 35°29' E 139°40'0 0.0
2018-Feb-15 10:59N 35°29' E 139°40'0 0.0
2018-Feb-15 10:29N 35°29' E 139°40'0 0.0
2018-Feb-15 09:59N 35°29' E 139°40'0 0.0
2018-Feb-15 09:29N 35°29' E 139°40'0 0.0
2018-Feb-15 08:59N 35°29' E 139°40'0 0.0
2018-Feb-15 08:30N 35°29' E 139°40'0 0.0
2018-Feb-15 08:00N 35°29' E 139°40'2 4.6
2018-Feb-15 07:30N 35°27' E 139°41'4 9.0
2018-Feb-15 07:00N 35°22' E 139°43'510.0
2018-Feb-15 06:30N 35°18' E 139°45'5 9.7
2018-Feb-15 06:00N 35°13' E 139°47'510.0
2018-Feb-15 05:30N 35°08' E 139°46'5 9.4
2018-Feb-15 04:59N 35°04' E 139°42'4 9.2
2018-Feb-15 04:30N 35°01' E 139°38'5 9.6
2018-Feb-15 04:00N 34°58' E 139°34'713.7
2018-Feb-15 03:30N 34°54' E 139°27'714.5
2018-Feb-15 03:00N 34°49' E 139°21'714.1
2018-Feb-15 02:30N 34°44' E 139°14'814.0
2018-Feb-15 01:57N 34°39' E 139°08'614.3
2018-Feb-15 01:30N 34°34' E 139°02'713.7
2018-Feb-15 01:00N 34°31' E 138°54'913.4
2018-Feb-15 00:21N 34°29' E 138°44'1213.2
2018-Feb-14 23:25N 34°27' E 138°29'1313.2
2018-Feb-14 22:27N 34°25' E 138°14'10012.3
2018-Feb-14 14:21N 33°44' E 136°24'61 9.8
2018-Feb-14 08:06N 33°42' E 135°11'211.8
2018-Feb-14 07:54N 33°44' E 135°09'511.8
2018-Feb-14 07:30N 33°47' E 135°05'611.8
2018-Feb-14 07:00N 33°52' E 135°01'611.6
2018-Feb-14 06:30N 33°57' E 134°59'611.9
2018-Feb-14 06:00N 34°03' E 134°59'612.5
2018-Feb-14 05:30N 34°10' E 134°58'612.7
2018-Feb-14 05:00N 34°16' E 134°58'611.8
2018-Feb-14 04:30N 34°22' E 134°59'612.1
2018-Feb-14 04:00N 34°28' E 135°01'612.3
2018-Feb-14 03:30N 34°34' E 135°03'5 9.9
2018-Feb-14 03:00N 34°37' E 134°58'612.0
2018-Feb-14 02:30N 34°38' E 134°51'612.0
2018-Feb-14 02:00N 34°39' E 134°44'611.3
2018-Feb-14 01:30N 34°43' E 134°38'611.8
2018-Feb-14 00:59N 34°43' E 134°31'611.5
2018-Feb-14 00:30N 34°42' E 134°24'3 6.2
2018-Feb-14 00:00N 34°45' E 134°22'0 0.1
2018-Feb-13 23:23N 34°45' E 134°22'0 0.0
2018-Feb-13 22:05N 34°45' E 134°22'0 0.0
2018-Feb-13 21:59N 34°45' E 134°22'0 0.0
2018-Feb-13 21:23N 34°45' E 134°22'0 0.0
2018-Feb-13 20:29N 34°45' E 134°22'0 0.0
2018-Feb-13 19:59N 34°45' E 134°22'0 0.0
2018-Feb-13 19:29N 34°45' E 134°22'0 0.0
2018-Feb-13 18:59N 34°45' E 134°22'0 0.1
2018-Feb-13 18:29N 34°45' E 134°22'0 0.0
2018-Feb-13 17:59N 34°45' E 134°22'0 0.0
2018-Feb-13 17:29N 34°45' E 134°22'0 0.1
2018-Feb-13 16:59N 34°45' E 134°22'0 0.1
2018-Feb-13 16:23N 34°45' E 134°22'0 0.0
2018-Feb-13 15:59N 34°45' E 134°22'0 0.1
2018-Feb-13 15:29N 34°45' E 134°22'0 0.1
2018-Feb-13 14:47N 34°45' E 134°22'0 0.5
2018-Feb-13 14:30N 34°45' E 134°22'3 6.6
2018-Feb-13 14:00N 34°42' E 134°24'612.5
2018-Feb-13 13:30N 34°43' E 134°32'612.3
2018-Feb-13 13:00N 34°42' E 134°39'612.7
2018-Feb-13 12:30N 34°39' E 134°46'612.7
2018-Feb-13 12:01N 34°37' E 134°53'713.2
2018-Feb-13 11:30N 34°37' E 135°01'612.4
2018-Feb-13 11:00N 34°36' E 135°09'612.8
2018-Feb-13 10:30N 34°36' E 135°16'612.0
2018-Feb-13 10:00N 34°38' E 135°23'4 6.6
2018-Feb-13 09:28N 34°40' E 135°27'0 0.0
2018-Feb-13 08:58N 34°40' E 135°27'0 0.0
2018-Feb-13 08:28N 34°40' E 135°27'0 0.0
2018-Feb-13 07:58N 34°40' E 135°27'0 0.0
2018-Feb-13 07:28N 34°40' E 135°27'0 0.0
2018-Feb-13 06:58N 34°40' E 135°27'0 0.0
2018-Feb-13 06:28N 34°40' E 135°27'0 0.0
2018-Feb-13 05:58N 34°40' E 135°27'0 0.0
2018-Feb-13 05:28N 34°40' E 135°27'0 0.0
2018-Feb-13 04:58N 34°40' E 135°27'0 0.0
2018-Feb-13 04:28N 34°40' E 135°27'0 0.0
2018-Feb-13 03:58N 34°40' E 135°27'0 0.0
2018-Feb-13 03:28N 34°40' E 135°27'0 0.0
2018-Feb-13 02:58N 34°40' E 135°27'0 0.0
2018-Feb-13 02:28N 34°40' E 135°27'0 0.0
2018-Feb-13 01:58N 34°40' E 135°27'0 0.0
2018-Feb-13 01:28N 34°40' E 135°27'0 0.0
2018-Feb-13 00:58N 34°40' E 135°27'0 0.0
2018-Feb-13 00:28N 34°40' E 135°27'0 0.0
2018-Feb-12 23:58N 34°40' E 135°27'0 0.0
2018-Feb-12 23:30N 34°40' E 135°27'0 0.6
2018-Feb-12 23:00N 34°40' E 135°27'4 7.2
2018-Feb-12 22:30N 34°38' E 135°23'5 9.3
2018-Feb-12 22:01N 34°35' E 135°18'0 0.9
2018-Feb-12 21:28N 34°35' E 135°18'0 0.0
2018-Feb-12 20:58N 34°35' E 135°18'0 0.0
2018-Feb-12 20:28N 34°35' E 135°18'0 0.0
2018-Feb-12 19:58N 34°35' E 135°18'0 0.0
2018-Feb-12 19:28N 34°35' E 135°18'0 0.0
2018-Feb-12 18:58N 34°35' E 135°18'0 0.0
2018-Feb-12 18:28N 34°35' E 135°18'0 0.0
2018-Feb-12 17:58N 34°35' E 135°18'0 0.0
2018-Feb-12 17:28N 34°35' E 135°18'0 0.0
2018-Feb-12 16:58N 34°35' E 135°18'0 0.1
2018-Feb-12 16:28N 34°35' E 135°18'0 0.0
2018-Feb-12 15:58N 34°35' E 135°18'0 0.0
2018-Feb-12 15:16N 34°35' E 135°18'0 0.0
2018-Feb-12 14:58N 34°35' E 135°18'0 0.0
2018-Feb-12 14:28N 34°35' E 135°18'0 0.0
2018-Feb-12 13:58N 34°35' E 135°18'0 0.0
2018-Feb-12 13:28N 34°35' E 135°18'0 0.0
2018-Feb-12 12:58N 34°35' E 135°18'0 0.0
2018-Feb-12 12:28N 34°35' E 135°18'0 0.0
2018-Feb-12 11:58N 34°35' E 135°18'0 0.0
2018-Feb-12 11:28N 34°35' E 135°18'0 0.0
2018-Feb-12 10:58N 34°35' E 135°18'0 0.0
2018-Feb-12 10:28N 34°35' E 135°18'0 0.0
2018-Feb-12 09:58N 34°35' E 135°18'0 0.0
2018-Feb-12 09:28N 34°35' E 135°18'0 0.0
2018-Feb-12 08:58N 34°35' E 135°18'0 0.0
2018-Feb-12 08:28N 34°35' E 135°18'0 0.0
2018-Feb-12 07:58N 34°35' E 135°18'0 0.0
2018-Feb-12 07:28N 34°35' E 135°18'0 0.0
2018-Feb-12 06:58N 34°35' E 135°18'1 2.0
2018-Feb-12 06:30N 34°35' E 135°17'611.9
2018-Feb-12 06:00N 34°35' E 135°09'713.0
2018-Feb-12 05:31N 34°37' E 135°02'713.0
2018-Feb-12 05:00N 34°37' E 134°54'713.0
2018-Feb-12 04:30N 34°39' E 134°46'612.3
2018-Feb-12 04:00N 34°42' E 134°40'612.2
2018-Feb-12 03:30N 34°42' E 134°32'612.4
2018-Feb-12 03:00N 34°42' E 134°25'3 6.2
2018-Feb-12 02:28N 34°45' E 134°22'0 0.2
2018-Feb-12 01:52N 34°45' E 134°22'0 0.0
2018-Feb-12 01:22N 34°45' E 134°22'0 0.1
2018-Feb-12 00:58N 34°45' E 134°22'0 0.0
2018-Feb-11 23:40N 34°45' E 134°22'0 0.0
2018-Feb-11 23:28N 34°45' E 134°22'0 0.1
2018-Feb-11 22:58N 34°45' E 134°22'0 0.1
2018-Feb-11 22:28N 34°45' E 134°22'0 0.1
2018-Feb-11 21:52N 34°45' E 134°22'0 0.1
2018-Feb-11 21:28N 34°45' E 134°22'0 0.0
2018-Feb-11 20:58N 34°45' E 134°22'0 0.1
2018-Feb-11 20:22N 34°45' E 134°22'0 0.1
2018-Feb-11 19:52N 34°45' E 134°22'0 0.0
2018-Feb-11 19:28N 34°45' E 134°22'0 0.1
2018-Feb-11 19:00N 34°45' E 134°22'3 5.9
2018-Feb-11 18:28N 34°42' E 134°23'611.9
2018-Feb-11 17:59N 34°43' E 134°30'612.1
2018-Feb-11 17:30N 34°42' E 134°37'612.3
2018-Feb-11 17:00N 34°40' E 134°44'612.1
2018-Feb-11 16:30N 34°38' E 134°51'611.4
2018-Feb-11 16:01N 34°37' E 134°58'5 9.8
2018-Feb-11 15:30N 34°36' E 135°04'510.0
2018-Feb-11 15:01N 34°31' E 135°05'612.4
2018-Feb-11 14:30N 34°25' E 135°03'612.3
2018-Feb-11 14:01N 34°20' E 135°00'611.1
2018-Feb-11 13:31N 34°14' E 134°59'611.7
2018-Feb-11 13:00N 34°08' E 134°60'611.8
2018-Feb-11 12:30N 34°02' E 134°60'510.9
2018-Feb-11 12:00N 33°57' E 134°60'510.4
2018-Feb-11 11:30N 33°52' E 134°60'510.2
2018-Feb-11 11:00N 33°48' E 135°03'510.4
2018-Feb-11 10:30N 33°44' E 135°07'  
Track history (hours):
 
Tides and Currents Weather Stations Pressure Air Temp Water Temp Dewpoint Dewpoint Depression Visibility Wind Speed Wind Dir Waves Ship Positions

Sumise Maru No.8

Last reported at 2018-Feb-20 18:43 UTC. Time now 2018-Feb-24 18:30 UTC.
Position N 41°16' E 140°18'.

Length 99 m; draft 6.3 m.

Type: Cargo ship. MMSI: 431401788.

Date/timePositionNaut miles runAvg speedWind from/ knotsBaromVisibWave heightAir tempDewpointWater temp
2018-Feb-20 18:43N 41°16' E 140°18'3 7.8
2018-Feb-20 18:21N 41°18' E 140°21'3 9.0
2018-Feb-20 18:00N 41°18' E 140°25'510.4
2018-Feb-20 17:29N 41°18' E 140°32'510.3
2018-Feb-20 17:00N 41°19' E 140°38'611.7
2018-Feb-20 16:30N 41°24' E 140°43'611.4
2018-Feb-20 16:00N 41°29' E 140°47'511.0
2018-Feb-20 15:30N 41°33' E 140°51'4 8.8
2018-Feb-20 15:00N 41°36' E 140°56'510.0
2018-Feb-20 14:30N 41°34' E 141°03'510.7
2018-Feb-20 14:00N 41°32' E 141°09'510.3
2018-Feb-20 13:30N 41°29' E 141°15'510.6
2018-Feb-20 13:00N 41°26' E 141°21'4 7.7
2018-Feb-20 12:29N 41°25' E 141°26'0 0.0
2018-Feb-20 11:34N 41°25' E 141°26'0 0.0
2018-Feb-20 10:46N 41°25' E 141°26'0 0.0
2018-Feb-20 10:16N 41°25' E 141°26'0 0.0
2018-Feb-20 09:01N 41°25' E 141°26'0 0.0
2018-Feb-20 08:55N 41°25' E 141°26'0 0.0
2018-Feb-20 08:22N 41°25' E 141°26'0 0.0
2018-Feb-20 06:58N 41°25' E 141°26'0 0.3
2018-Feb-20 06:28N 41°25' E 141°26'1 1.7
2018-Feb-20 05:56N 41°25' E 141°25'0 1.1
2018-Feb-20 05:30N 41°25' E 141°25'3 6.0
2018-Feb-20 05:00N 41°28' E 141°25'4 7.6
2018-Feb-20 04:29N 41°28' E 141°30'910.9
2018-Feb-20 03:39N 41°20' E 141°33'511.6
2018-Feb-20 03:15N 41°15' E 141°34'312.0
2018-Feb-20 02:59N 41°12' E 141°34'611.6
2018-Feb-20 02:30N 41°06' E 141°34'1712.2
2018-Feb-20 01:06N 40°49' E 141°34'312.2
2018-Feb-20 00:51N 40°46' E 141°34'38 3.2
2018-Feb-19 12:59N 41°24' E 141°35'714.0
2018-Feb-19 12:30N 41°30' E 141°35'714.0
2018-Feb-19 11:59N 41°38' E 141°34'713.1
2018-Feb-19 11:28N 41°45' E 141°34'2 0.1
2018-Feb-18 15:30N 41°47' E 141°35'611.5
2018-Feb-18 15:00N 41°41' E 141°34'610.9
2018-Feb-18 14:28N 41°35' E 141°34'510.5
2018-Feb-18 14:00N 41°30' E 141°34'510.3
2018-Feb-18 13:30N 41°25' E 141°34'1010.4
2018-Feb-18 12:34N 41°15' E 141°34'110.4
2018-Feb-18 12:30N 41°15' E 141°34'510.5
2018-Feb-18 12:00N 41°09' E 141°34'1911.3
2018-Feb-18 10:19N 40°50' E 141°33'611.6
2018-Feb-18 09:50N 40°45' E 141°34'351 8.1
2018-Feb-16 14:14N 34°59' E 140°14'412.4
2018-Feb-16 13:55N 34°57' E 140°10'512.2
2018-Feb-16 13:28N 34°54' E 140°04'1211.2
2018-Feb-16 12:22N 34°51' E 139°50'714.5
2018-Feb-16 11:51N 34°56' E 139°43'513.5
2018-Feb-16 11:30N 35°00' E 139°41'713.1
2018-Feb-16 11:00N 35°07' E 139°44'713.2
2018-Feb-16 10:30N 35°13' E 139°46'612.4
2018-Feb-16 10:00N 35°19' E 139°43'612.4
2018-Feb-16 09:30N 35°25' E 139°43'713.1
2018-Feb-16 09:00N 35°29' E 139°49'510.3
2018-Feb-16 08:30N 35°34' E 139°49'5 9.8
2018-Feb-16 08:00N 35°38' E 139°46'0 0.2
2018-Feb-16 07:30N 35°38' E 139°45'0 0.0
2018-Feb-16 01:28N 35°38' E 139°45'0 0.0
2018-Feb-16 01:00N 35°38' E 139°45'1 2.4
2018-Feb-16 00:31N 35°37' E 139°46'5 9.0
2018-Feb-16 00:00N 35°34' E 139°50'510.0
2018-Feb-15 23:31N 35°29' E 139°51'611.2
2018-Feb-15 23:00N 35°26' E 139°45'5 9.3
2018-Feb-15 22:31N 35°28' E 139°40'1 1.4
2018-Feb-15 21:59N 35°29' E 139°40'0 0.0
2018-Feb-15 21:29N 35°29' E 139°40'0 0.0
2018-Feb-15 20:59N 35°29' E 139°40'0 0.0
2018-Feb-15 20:29N 35°29' E 139°40'0 0.0
2018-Feb-15 19:59N 35°29' E 139°40'0 0.0
2018-Feb-15 19:29N 35°29' E 139°40'0 0.0
2018-Feb-15 18:59N 35°29' E 139°40'0 0.0
2018-Feb-15 18:29N 35°29' E 139°40'0 0.0
2018-Feb-15 17:59N 35°29' E 139°40'0 0.0
2018-Feb-15 17:29N 35°29' E 139°40'0 0.0
2018-Feb-15 16:56N 35°29' E 139°40'0 0.0
2018-Feb-15 16:29N 35°29' E 139°40'0 0.0
2018-Feb-15 15:59N 35°29' E 139°40'0 0.0
2018-Feb-15 15:29N 35°29' E 139°40'0 0.0
2018-Feb-15 14:59N 35°29' E 139°40'0 0.0
2018-Feb-15 14:29N 35°29' E 139°40'0 0.0
2018-Feb-15 13:59N 35°29' E 139°40'0 0.0
2018-Feb-15 13:29N 35°29' E 139°40'0 0.0
2018-Feb-15 12:59N 35°29' E 139°40'0 0.0
2018-Feb-15 12:29N 35°29' E 139°40'0 0.0
2018-Feb-15 11:59N 35°29' E 139°40'0 0.0
2018-Feb-15 11:29N 35°29' E 139°40'0 0.0
2018-Feb-15 10:59N 35°29' E 139°40'0 0.0
2018-Feb-15 10:29N 35°29' E 139°40'0 0.0
2018-Feb-15 09:59N 35°29' E 139°40'0 0.0
2018-Feb-15 09:29N 35°29' E 139°40'0 0.0
2018-Feb-15 08:59N 35°29' E 139°40'0 0.0
2018-Feb-15 08:30N 35°29' E 139°40'0 0.0
2018-Feb-15 08:00N 35°29' E 139°40'2 4.6
2018-Feb-15 07:30N 35°27' E 139°41'4 9.0
2018-Feb-15 07:00N 35°22' E 139°43'510.0
2018-Feb-15 06:30N 35°18' E 139°45'5 9.7
2018-Feb-15 06:00N 35°13' E 139°47'510.0
2018-Feb-15 05:30N 35°08' E 139°46'5 9.4
2018-Feb-15 04:59N 35°04' E 139°42'4 9.2
2018-Feb-15 04:30N 35°01' E 139°38'5 9.6
2018-Feb-15 04:00N 34°58' E 139°34'713.7
2018-Feb-15 03:30N 34°54' E 139°27'714.5
2018-Feb-15 03:00N 34°49' E 139°21'714.1
2018-Feb-15 02:30N 34°44' E 139°14'814.0
2018-Feb-15 01:57N 34°39' E 139°08'614.3
2018-Feb-15 01:30N 34°34' E 139°02'713.7
2018-Feb-15 01:00N 34°31' E 138°54'913.4
2018-Feb-15 00:21N 34°29' E 138°44'1213.2
2018-Feb-14 23:25N 34°27' E 138°29'1313.2
2018-Feb-14 22:27N 34°25' E 138°14'10012.3
2018-Feb-14 14:21N 33°44' E 136°24'61 9.8
2018-Feb-14 08:06N 33°42' E 135°11'211.8
2018-Feb-14 07:54N 33°44' E 135°09'511.8
2018-Feb-14 07:30N 33°47' E 135°05'611.8
2018-Feb-14 07:00N 33°52' E 135°01'611.6
2018-Feb-14 06:30N 33°57' E 134°59'611.9
2018-Feb-14 06:00N 34°03' E 134°59'612.5
2018-Feb-14 05:30N 34°10' E 134°58'612.7
2018-Feb-14 05:00N 34°16' E 134°58'611.8
2018-Feb-14 04:30N 34°22' E 134°59'612.1
2018-Feb-14 04:00N 34°28' E 135°01'612.3
2018-Feb-14 03:30N 34°34' E 135°03'5 9.9
2018-Feb-14 03:00N 34°37' E 134°58'612.0
2018-Feb-14 02:30N 34°38' E 134°51'612.0
2018-Feb-14 02:00N 34°39' E 134°44'611.3
2018-Feb-14 01:30N 34°43' E 134°38'611.8
2018-Feb-14 00:59N 34°43' E 134°31'611.5
2018-Feb-14 00:30N 34°42' E 134°24'3 6.2
2018-Feb-14 00:00N 34°45' E 134°22'0 0.1
2018-Feb-13 23:23N 34°45' E 134°22'0 0.0
2018-Feb-13 22:05N 34°45' E 134°22'0 0.0
2018-Feb-13 21:59N 34°45' E 134°22'0 0.0
2018-Feb-13 21:23N 34°45' E 134°22'0 0.0
2018-Feb-13 20:29N 34°45' E 134°22'0 0.0
2018-Feb-13 19:59N 34°45' E 134°22'0 0.0
2018-Feb-13 19:29N 34°45' E 134°22'0 0.0
2018-Feb-13 18:59N 34°45' E 134°22'0 0.1
2018-Feb-13 18:29N 34°45' E 134°22'0 0.0
2018-Feb-13 17:59N 34°45' E 134°22'0 0.0
2018-Feb-13 17:29N 34°45' E 134°22'0 0.1
2018-Feb-13 16:59N 34°45' E 134°22'0 0.1
2018-Feb-13 16:23N 34°45' E 134°22'0 0.0
2018-Feb-13 15:59N 34°45' E 134°22'0 0.1
2018-Feb-13 15:29N 34°45' E 134°22'0 0.1
2018-Feb-13 14:47N 34°45' E 134°22'0 0.5
2018-Feb-13 14:30N 34°45' E 134°22'3 6.6
2018-Feb-13 14:00N 34°42' E 134°24'612.5
2018-Feb-13 13:30N 34°43' E 134°32'612.3
2018-Feb-13 13:00N 34°42' E 134°39'612.7
2018-Feb-13 12:30N 34°39' E 134°46'612.7
2018-Feb-13 12:01N 34°37' E 134°53'713.2
2018-Feb-13 11:30N 34°37' E 135°01'612.4
2018-Feb-13 11:00N 34°36' E 135°09'612.8
2018-Feb-13 10:30N 34°36' E 135°16'612.0
2018-Feb-13 10:00N 34°38' E 135°23'4 6.6
2018-Feb-13 09:28N 34°40' E 135°27'0 0.0
2018-Feb-13 08:58N 34°40' E 135°27'0 0.0
2018-Feb-13 08:28N 34°40' E 135°27'0 0.0
2018-Feb-13 07:58N 34°40' E 135°27'0 0.0
2018-Feb-13 07:28N 34°40' E 135°27'0 0.0
2018-Feb-13 06:58N 34°40' E 135°27'0 0.0
2018-Feb-13 06:28N 34°40' E 135°27'0 0.0
2018-Feb-13 05:58N 34°40' E 135°27'0 0.0
2018-Feb-13 05:28N 34°40' E 135°27'0 0.0
2018-Feb-13 04:58N 34°40' E 135°27'0 0.0
2018-Feb-13 04:28N 34°40' E 135°27'0 0.0
2018-Feb-13 03:58N 34°40' E 135°27'0 0.0
2018-Feb-13 03:28N 34°40' E 135°27'0 0.0
2018-Feb-13 02:58N 34°40' E 135°27'0 0.0
2018-Feb-13 02:28N 34°40' E 135°27'0 0.0
2018-Feb-13 01:58N 34°40' E 135°27'0 0.0
2018-Feb-13 01:28N 34°40' E 135°27'0 0.0
2018-Feb-13 00:58N 34°40' E 135°27'0 0.0
2018-Feb-13 00:28N 34°40' E 135°27'0 0.0
2018-Feb-12 23:58N 34°40' E 135°27'0 0.0
2018-Feb-12 23:30N 34°40' E 135°27'0 0.6
2018-Feb-12 23:00N 34°40' E 135°27'4 7.2
2018-Feb-12 22:30N 34°38' E 135°23'5 9.3
2018-Feb-12 22:01N 34°35' E 135°18'0 0.9
2018-Feb-12 21:28N 34°35' E 135°18'0 0.0
2018-Feb-12 20:58N 34°35' E 135°18'0 0.0
2018-Feb-12 20:28N 34°35' E 135°18'0 0.0
2018-Feb-12 19:58N 34°35' E 135°18'0 0.0
2018-Feb-12 19:28N 34°35' E 135°18'0 0.0
2018-Feb-12 18:58N 34°35' E 135°18'0 0.0
2018-Feb-12 18:28N 34°35' E 135°18'0 0.0
2018-Feb-12 17:58N 34°35' E 135°18'0 0.0
2018-Feb-12 17:28N 34°35' E 135°18'0 0.0
2018-Feb-12 16:58N 34°35' E 135°18'0 0.1
2018-Feb-12 16:28N 34°35' E 135°18'0 0.0
2018-Feb-12 15:58N 34°35' E 135°18'0 0.0
2018-Feb-12 15:16N 34°35' E 135°18'0 0.0
2018-Feb-12 14:58N 34°35' E 135°18'0 0.0
2018-Feb-12 14:28N 34°35' E 135°18'0 0.0
2018-Feb-12 13:58N 34°35' E 135°18'0 0.0
2018-Feb-12 13:28N 34°35' E 135°18'0 0.0
2018-Feb-12 12:58N 34°35' E 135°18'0 0.0
2018-Feb-12 12:28N 34°35' E 135°18'0 0.0
2018-Feb-12 11:58N 34°35' E 135°18'0 0.0
2018-Feb-12 11:28N 34°35' E 135°18'0 0.0
2018-Feb-12 10:58N 34°35' E 135°18'0 0.0
2018-Feb-12 10:28N 34°35' E 135°18'0 0.0
2018-Feb-12 09:58N 34°35' E 135°18'0 0.0
2018-Feb-12 09:28N 34°35' E 135°18'0 0.0
2018-Feb-12 08:58N 34°35' E 135°18'0 0.0
2018-Feb-12 08:28N 34°35' E 135°18'0 0.0
2018-Feb-12 07:58N 34°35' E 135°18'0 0.0
2018-Feb-12 07:28N 34°35' E 135°18'0 0.0
2018-Feb-12 06:58N 34°35' E 135°18'1 2.0
2018-Feb-12 06:30N 34°35' E 135°17'611.9
2018-Feb-12 06:00N 34°35' E 135°09'713.0
2018-Feb-12 05:31N 34°37' E 135°02'713.0
2018-Feb-12 05:00N 34°37' E 134°54'713.0
2018-Feb-12 04:30N 34°39' E 134°46'612.3
2018-Feb-12 04:00N 34°42' E 134°40'612.2
2018-Feb-12 03:30N 34°42' E 134°32'612.4
2018-Feb-12 03:00N 34°42' E 134°25'3 6.2
2018-Feb-12 02:28N 34°45' E 134°22'0 0.2
2018-Feb-12 01:52N 34°45' E 134°22'0 0.0
2018-Feb-12 01:22N 34°45' E 134°22'0 0.1
2018-Feb-12 00:58N 34°45' E 134°22'0 0.0
2018-Feb-11 23:40N 34°45' E 134°22'0 0.0
2018-Feb-11 23:28N 34°45' E 134°22'0 0.1
2018-Feb-11 22:58N 34°45' E 134°22'0 0.1
2018-Feb-11 22:28N 34°45' E 134°22'0 0.1
2018-Feb-11 21:52N 34°45' E 134°22'0 0.1
2018-Feb-11 21:28N 34°45' E 134°22'0 0.0
2018-Feb-11 20:58N 34°45' E 134°22'0 0.1
2018-Feb-11 20:22N 34°45' E 134°22'0 0.1
2018-Feb-11 19:52N 34°45' E 134°22'0 0.0
2018-Feb-11 19:28N 34°45' E 134°22'0 0.1
2018-Feb-11 19:00N 34°45' E 134°22'3 5.9
2018-Feb-11 18:28N 34°42' E 134°23'611.9
2018-Feb-11 17:59N 34°43' E 134°30'612.1
2018-Feb-11 17:30N 34°42' E 134°37'612.3
2018-Feb-11 17:00N 34°40' E 134°44'612.1
2018-Feb-11 16:30N 34°38' E 134°51'611.4
2018-Feb-11 16:01N 34°37' E 134°58'5 9.8
2018-Feb-11 15:30N 34°36' E 135°04'510.0
2018-Feb-11 15:01N 34°31' E 135°05'612.4
2018-Feb-11 14:30N 34°25' E 135°03'612.3
2018-Feb-11 14:01N 34°20' E 135°00'611.1
2018-Feb-11 13:31N 34°14' E 134°59'611.7
2018-Feb-11 13:00N 34°08' E 134°60'611.8
2018-Feb-11 12:30N 34°02' E 134°60'510.9
2018-Feb-11 12:00N 33°57' E 134°60'510.4
2018-Feb-11 11:30N 33°52' E 134°60'510.2
2018-Feb-11 11:00N 33°48' E 135°03'510.4
2018-Feb-11 10:30N 33°44' E 135°07'  

Dump ship's entire track history